Murray, Iowa
Current Conditions -  °F | °C
As of 5:15 PM on Friday 31 Oct 2014 (Local Time) from KI75 Reporting Station
Clear Clear  
Wind Chill: 36°   Ceiling: Unl
Heat Index: 41°   Visibility: 10mi
Dew Point: 20°   Wind: 8mph
Humidity: 43%   Direction: 340°NNW
Pressure: 30.45"   Gusts: NA
Location:  41.04°N, 93.95°W
Report Text: KI75 312215Z AUTO 34007KT 10SM CLR 05/M07 A3045 RMK AO2 T00501068
Loading
Personal Weather Stations






























Interactive Weather Map
Tropical Storm Tracking
New forecast layout! Learn more

10-Day Weather Forecast

Advertisements
Track Severe Weather on mobile